sensor_id;sensor_type;location;lat;lon;timestamp;P1;durP1;ratioP1;P2;durP2;ratioP2
79480;SDS011;68944;48.262;14.208;2024-01-16T00:01:45;9.55;;;2.55;;
79480;SDS011;68944;48.262;14.208;2024-01-16T00:04:11;7.88;;;2.38;;
79480;SDS011;68944;48.262;14.208;2024-01-16T00:06:39;6.10;;;2.28;;
79480;SDS011;68944;48.262;14.208;2024-01-16T00:11:32;6.30;;;2.10;;
79480;SDS011;68944;48.262;14.208;2024-01-16T00:13:57;7.68;;;2.88;;
79480;SDS011;68944;48.262;14.208;2024-01-16T00:16:23;6.47;;;2.17;;
79480;SDS011;68944;48.262;14.208;2024-01-16T00:18:48;7.43;;;2.15;;
79480;SDS011;68944;48.262;14.208;2024-01-16T00:21:15;7.30;;;2.25;;
79480;SDS011;68944;48.262;14.208;2024-01-16T00:23:40;7.20;;;2.30;;
79480;SDS011;68944;48.262;14.208;2024-01-16T00:26:06;8.52;;;2.78;;
79480;SDS011;68944;48.262;14.208;2024-01-16T00:28:31;6.07;;;2.42;;
79480;SDS011;68944;48.262;14.208;2024-01-16T00:30:57;5.70;;;2.22;;
79480;SDS011;68944;48.262;14.208;2024-01-16T00:33:23;7.07;;;2.42;;
79480;SDS011;68944;48.262;14.208;2024-01-16T00:35:49;6.47;;;2.47;;
79480;SDS011;68944;48.262;14.208;2024-01-16T00:38:14;5.47;;;1.95;;
79480;SDS011;68944;48.262;14.208;2024-01-16T00:40:40;6.63;;;2.35;;
79480;SDS011;68944;48.262;14.208;2024-01-16T00:43:05;6.00;;;2.17;;
79480;SDS011;68944;48.262;14.208;2024-01-16T00:45:31;6.10;;;2.20;;
79480;SDS011;68944;48.262;14.208;2024-01-16T00:47:56;13.07;;;2.25;;
79480;SDS011;68944;48.262;14.208;2024-01-16T00:50:22;6.45;;;2.25;;
79480;SDS011;68944;48.262;14.208;2024-01-16T00:52:47;7.93;;;2.30;;
79480;SDS011;68944;48.262;14.208;2024-01-16T00:55:13;8.70;;;2.38;;
79480;SDS011;68944;48.262;14.208;2024-01-16T00:57:38;6.40;;;2.10;;
79480;SDS011;68944;48.262;14.208;2024-01-16T01:00:04;6.50;;;2.17;;
79480;SDS011;68944;48.262;14.208;2024-01-16T01:02:30;6.30;;;2.05;;
79480;SDS011;68944;48.262;14.208;2024-01-16T01:04:56;6.07;;;2.40;;
79480;SDS011;68944;48.262;14.208;2024-01-16T01:07:21;6.85;;;2.25;;
79480;SDS011;68944;48.262;14.208;2024-01-16T01:09:47;5.75;;;2.08;;
79480;SDS011;68944;48.262;14.208;2024-01-16T01:12:12;6.15;;;2.08;;
79480;SDS011;68944;48.262;14.208;2024-01-16T01:14:38;5.20;;;1.73;;
79480;SDS011;68944;48.262;14.208;2024-01-16T01:17:03;6.22;;;2.13;;
79480;SDS011;68944;48.262;14.208;2024-01-16T01:19:29;5.65;;;1.90;;
79480;SDS011;68944;48.262;14.208;2024-01-16T01:21:54;5.80;;;2.28;;
79480;SDS011;68944;48.262;14.208;2024-01-16T01:24:20;8.60;;;2.45;;
79480;SDS011;68944;48.262;14.208;2024-01-16T01:26:45;5.53;;;1.98;;
79480;SDS011;68944;48.262;14.208;2024-01-16T01:29:11;6.18;;;2.50;;
79480;SDS011;68944;48.262;14.208;2024-01-16T01:31:36;5.45;;;2.25;;
79480;SDS011;68944;48.262;14.208;2024-01-16T01:34:02;5.93;;;1.83;;
79480;SDS011;68944;48.262;14.208;2024-01-16T01:36:27;6.53;;;2.33;;
79480;SDS011;68944;48.262;14.208;2024-01-16T01:38:53;7.65;;;2.13;;
79480;SDS011;68944;48.262;14.208;2024-01-16T01:41:18;4.70;;;1.60;;
79480;SDS011;68944;48.262;14.208;2024-01-16T01:43:44;3.60;;;1.45;;
79480;SDS011;68944;48.262;14.208;2024-01-16T01:48:40;7.38;;;1.90;;
79480;SDS011;68944;48.262;14.208;2024-01-16T01:51:07;6.07;;;1.80;;
79480;SDS011;68944;48.262;14.208;2024-01-16T01:53:34;6.53;;;2.50;;
79480;SDS011;68944;48.262;14.208;2024-01-16T01:56:02;6.28;;;2.10;;
79480;SDS011;68944;48.262;14.208;2024-01-16T01:58:31;6.70;;;2.10;;
79480;SDS011;68944;48.262;14.208;2024-01-16T02:00:58;5.28;;;1.67;;
79480;SDS011;68944;48.262;14.208;2024-01-16T02:03:25;5.30;;;1.90;;
79480;SDS011;68944;48.262;14.208;2024-01-16T02:05:52;5.70;;;1.80;;
79480;SDS011;68944;48.262;14.208;2024-01-16T02:08:18;7.97;;;2.33;;
79480;SDS011;68944;48.262;14.208;2024-01-16T02:10:45;4.43;;;1.70;;
79480;SDS011;68944;48.262;14.208;2024-01-16T02:13:14;4.75;;;1.75;;
79480;SDS011;68944;48.262;14.208;2024-01-16T02:15:40;7.70;;;2.20;;
79480;SDS011;68944;48.262;14.208;2024-01-16T02:18:06;5.47;;;1.98;;
79480;SDS011;68944;48.262;14.208;2024-01-16T02:20:32;5.13;;;1.70;;
79480;SDS011;68944;48.262;14.208;2024-01-16T02:22:59;6.78;;;1.92;;
79480;SDS011;68944;48.262;14.208;2024-01-16T02:25:28;4.97;;;1.65;;
79480;SDS011;68944;48.262;14.208;2024-01-16T02:27:54;5.32;;;1.83;;
79480;SDS011;68944;48.262;14.208;2024-01-16T02:30:20;5.32;;;1.73;;
79480;SDS011;68944;48.262;14.208;2024-01-16T02:32:45;5.13;;;1.70;;
79480;SDS011;68944;48.262;14.208;2024-01-16T02:35:11;5.50;;;1.80;;
79480;SDS011;68944;48.262;14.208;2024-01-16T02:37:36;5.25;;;1.33;;
79480;SDS011;68944;48.262;14.208;2024-01-16T02:40:02;4.65;;;1.63;;
79480;SDS011;68944;48.262;14.208;2024-01-16T02:42:34;4.78;;;1.80;;
79480;SDS011;68944;48.262;14.208;2024-01-16T02:44:59;5.75;;;1.55;;
79480;SDS011;68944;48.262;14.208;2024-01-16T02:47:25;5.60;;;1.85;;
79480;SDS011;68944;48.262;14.208;2024-01-16T02:49:50;5.57;;;1.65;;
79480;SDS011;68944;48.262;14.208;2024-01-16T02:52:16;5.50;;;1.88;;
79480;SDS011;68944;48.262;14.208;2024-01-16T02:54:41;4.20;;;1.27;;
79480;SDS011;68944;48.262;14.208;2024-01-16T02:57:07;9.63;;;2.00;;
79480;SDS011;68944;48.262;14.208;2024-01-16T02:59:32;5.18;;;1.42;;
79480;SDS011;68944;48.262;14.208;2024-01-16T03:01:58;4.35;;;1.35;;
79480;SDS011;68944;48.262;14.208;2024-01-16T03:04:23;5.00;;;1.77;;
79480;SDS011;68944;48.262;14.208;2024-01-16T03:06:50;4.55;;;1.50;;
79480;SDS011;68944;48.262;14.208;2024-01-16T03:09:16;5.57;;;1.85;;
79480;SDS011;68944;48.262;14.208;2024-01-16T03:11:41;4.00;;;1.60;;
79480;SDS011;68944;48.262;14.208;2024-01-16T03:14:07;5.75;;;1.27;;
79480;SDS011;68944;48.262;14.208;2024-01-16T03:16:32;4.90;;;1.52;;
79480;SDS011;68944;48.262;14.208;2024-01-16T03:18:58;5.95;;;1.58;;
79480;SDS011;68944;48.262;14.208;2024-01-16T03:21:24;5.72;;;1.40;;
79480;SDS011;68944;48.262;14.208;2024-01-16T03:23:49;5.82;;;1.20;;
79480;SDS011;68944;48.262;14.208;2024-01-16T03:26:15;4.90;;;1.33;;
79480;SDS011;68944;48.262;14.208;2024-01-16T03:28:41;3.85;;;1.33;;
79480;SDS011;68944;48.262;14.208;2024-01-16T03:31:07;5.10;;;1.60;;
79480;SDS011;68944;48.262;14.208;2024-01-16T03:33:32;5.80;;;1.60;;
79480;SDS011;68944;48.262;14.208;2024-01-16T03:36:00;5.30;;;1.67;;
79480;SDS011;68944;48.262;14.208;2024-01-16T03:38:26;6.88;;;1.67;;
79480;SDS011;68944;48.262;14.208;2024-01-16T03:40:51;4.40;;;1.58;;
79480;SDS011;68944;48.262;14.208;2024-01-16T03:43:17;5.05;;;1.30;;
79480;SDS011;68944;48.262;14.208;2024-01-16T03:45:43;5.95;;;1.25;;
79480;SDS011;68944;48.262;14.208;2024-01-16T03:48:09;5.25;;;1.25;;
79480;SDS011;68944;48.262;14.208;2024-01-16T03:50:34;3.40;;;1.17;;
79480;SDS011;68944;48.262;14.208;2024-01-16T03:53:01;3.80;;;1.13;;
79480;SDS011;68944;48.262;14.208;2024-01-16T03:55:29;1.58;;;0.68;;
79480;SDS011;68944;48.262;14.208;2024-01-16T03:57:56;2.38;;;0.98;;
79480;SDS011;68944;48.262;14.208;2024-01-16T04:00:21;3.38;;;1.10;;
79480;SDS011;68944;48.262;14.208;2024-01-16T04:02:47;3.67;;;1.23;;
79480;SDS011;68944;48.262;14.208;2024-01-16T04:05:12;3.65;;;1.17;;
79480;SDS011;68944;48.262;14.208;2024-01-16T04:07:38;3.25;;;1.13;;
79480;SDS011;68944;48.262;14.208;2024-01-16T04:10:03;3.22;;;1.08;;
79480;SDS011;68944;48.262;14.208;2024-01-16T04:12:31;4.43;;;1.33;;
79480;SDS011;68944;48.262;14.208;2024-01-16T04:14:56;1.80;;;0.80;;
79480;SDS011;68944;48.262;14.208;2024-01-16T04:17:22;5.55;;;1.50;;
79480;SDS011;68944;48.262;14.208;2024-01-16T04:19:47;2.08;;;0.75;;
79480;SDS011;68944;48.262;14.208;2024-01-16T04:22:13;2.92;;;1.30;;
79480;SDS011;68944;48.262;14.208;2024-01-16T04:24:38;2.10;;;0.70;;
79480;SDS011;68944;48.262;14.208;2024-01-16T04:27:04;3.67;;;1.17;;
79480;SDS011;68944;48.262;14.208;2024-01-16T04:29:29;5.60;;;1.02;;
79480;SDS011;68944;48.262;14.208;2024-01-16T04:31:56;3.53;;;1.33;;
79480;SDS011;68944;48.262;14.208;2024-01-16T04:34:22;2.88;;;1.08;;
79480;SDS011;68944;48.262;14.208;2024-01-16T04:36:48;3.45;;;1.38;;
79480;SDS011;68944;48.262;14.208;2024-01-16T04:39:13;1.77;;;0.68;;
79480;SDS011;68944;48.262;14.208;2024-01-16T04:41:39;3.28;;;1.08;;
79480;SDS011;68944;48.262;14.208;2024-01-16T04:44:04;3.55;;;1.30;;
79480;SDS011;68944;48.262;14.208;2024-01-16T04:46:30;2.75;;;1.05;;
79480;SDS011;68944;48.262;14.208;2024-01-16T04:48:55;1.80;;;0.70;;
79480;SDS011;68944;48.262;14.208;2024-01-16T04:51:21;2.60;;;0.77;;
79480;SDS011;68944;48.262;14.208;2024-01-16T04:53:46;3.60;;;0.80;;
79480;SDS011;68944;48.262;14.208;2024-01-16T04:56:12;2.38;;;0.95;;
79480;SDS011;68944;48.262;14.208;2024-01-16T04:58:37;2.10;;;0.90;;
79480;SDS011;68944;48.262;14.208;2024-01-16T05:01:04;4.10;;;1.20;;
79480;SDS011;68944;48.262;14.208;2024-01-16T05:03:29;5.43;;;1.20;;
79480;SDS011;68944;48.262;14.208;2024-01-16T05:05:55;2.60;;;0.98;;
79480;SDS011;68944;48.262;14.208;2024-01-16T05:08:22;2.90;;;1.08;;
79480;SDS011;68944;48.262;14.208;2024-01-16T05:10:49;4.38;;;1.23;;
79480;SDS011;68944;48.262;14.208;2024-01-16T05:13:14;7.70;;;1.10;;
79480;SDS011;68944;48.262;14.208;2024-01-16T05:15:40;4.15;;;1.20;;
79480;SDS011;68944;48.262;14.208;2024-01-16T05:18:05;2.88;;;0.77;;
79480;SDS011;68944;48.262;14.208;2024-01-16T05:20:31;5.88;;;1.45;;
79480;SDS011;68944;48.262;14.208;2024-01-16T05:22:56;4.15;;;1.45;;
79480;SDS011;68944;48.262;14.208;2024-01-16T05:25:22;4.57;;;1.42;;
79480;SDS011;68944;48.262;14.208;2024-01-16T05:27:48;3.00;;;1.20;;
79480;SDS011;68944;48.262;14.208;2024-01-16T05:30:14;2.92;;;1.20;;
79480;SDS011;68944;48.262;14.208;2024-01-16T05:32:40;4.07;;;1.20;;
79480;SDS011;68944;48.262;14.208;2024-01-16T05:35:07;3.50;;;1.30;;
79480;SDS011;68944;48.262;14.208;2024-01-16T05:37:34;2.88;;;1.27;;
79480;SDS011;68944;48.262;14.208;2024-01-16T05:40:01;3.17;;;1.02;;
79480;SDS011;68944;48.262;14.208;2024-01-16T05:42:28;5.57;;;1.55;;
79480;SDS011;68944;48.262;14.208;2024-01-16T05:44:54;4.35;;;1.45;;
79480;SDS011;68944;48.262;14.208;2024-01-16T05:47:20;3.13;;;1.10;;
79480;SDS011;68944;48.262;14.208;2024-01-16T05:49:45;3.63;;;1.10;;
79480;SDS011;68944;48.262;14.208;2024-01-16T05:52:11;4.53;;;1.38;;
79480;SDS011;68944;48.262;14.208;2024-01-16T05:54:36;1.10;;;0.40;;
79480;SDS011;68944;48.262;14.208;2024-01-16T05:57:02;3.25;;;1.27;;
79480;SDS011;68944;48.262;14.208;2024-01-16T05:59:28;5.97;;;1.48;;
79480;SDS011;68944;48.262;14.208;2024-01-16T06:01:53;7.13;;;1.35;;
79480;SDS011;68944;48.262;14.208;2024-01-16T06:04:19;4.25;;;1.55;;
79480;SDS011;68944;48.262;14.208;2024-01-16T06:06:44;7.22;;;1.60;;
79480;SDS011;68944;48.262;14.208;2024-01-16T06:09:12;4.47;;;1.15;;
79480;SDS011;68944;48.262;14.208;2024-01-16T06:11:41;8.00;;;1.30;;
79480;SDS011;68944;48.262;14.208;2024-01-16T06:14:08;6.10;;;1.38;;
79480;SDS011;68944;48.262;14.208;2024-01-16T06:16:34;3.97;;;1.13;;
79480;SDS011;68944;48.262;14.208;2024-01-16T06:19:00;4.63;;;1.13;;
79480;SDS011;68944;48.262;14.208;2024-01-16T06:21:26;3.63;;;1.20;;
79480;SDS011;68944;48.262;14.208;2024-01-16T06:23:52;3.17;;;1.15;;
79480;SDS011;68944;48.262;14.208;2024-01-16T06:26:18;2.92;;;1.15;;
79480;SDS011;68944;48.262;14.208;2024-01-16T06:28:43;3.97;;;1.10;;
79480;SDS011;68944;48.262;14.208;2024-01-16T06:31:09;3.60;;;1.02;;
79480;SDS011;68944;48.262;14.208;2024-01-16T06:33:35;4.28;;;1.60;;
79480;SDS011;68944;48.262;14.208;2024-01-16T06:36:04;3.63;;;1.33;;
79480;SDS011;68944;48.262;14.208;2024-01-16T06:38:30;4.45;;;1.45;;
79480;SDS011;68944;48.262;14.208;2024-01-16T06:40:56;5.07;;;1.23;;
79480;SDS011;68944;48.262;14.208;2024-01-16T06:43:22;1.88;;;0.77;;
79480;SDS011;68944;48.262;14.208;2024-01-16T06:45:48;4.88;;;1.35;;
79480;SDS011;68944;48.262;14.208;2024-01-16T06:48:14;4.22;;;1.08;;
79480;SDS011;68944;48.262;14.208;2024-01-16T06:50:41;4.47;;;1.17;;
79480;SDS011;68944;48.262;14.208;2024-01-16T06:53:07;4.47;;;1.20;;
79480;SDS011;68944;48.262;14.208;2024-01-16T06:55:32;4.95;;;1.35;;
79480;SDS011;68944;48.262;14.208;2024-01-16T06:57:58;5.20;;;1.45;;
79480;SDS011;68944;48.262;14.208;2024-01-16T07:00:23;3.85;;;1.08;;
79480;SDS011;68944;48.262;14.208;2024-01-16T07:02:51;4.82;;;1.38;;
79480;SDS011;68944;48.262;14.208;2024-01-16T07:05:17;3.72;;;1.27;;
79480;SDS011;68944;48.262;14.208;2024-01-16T07:07:43;7.22;;;1.67;;
79480;SDS011;68944;48.262;14.208;2024-01-16T07:10:08;6.13;;;1.65;;
79480;SDS011;68944;48.262;14.208;2024-01-16T07:12:38;3.88;;;1.20;;
79480;SDS011;68944;48.262;14.208;2024-01-16T07:15:05;3.67;;;1.40;;
79480;SDS011;68944;48.262;14.208;2024-01-16T07:17:31;4.60;;;1.52;;
79480;SDS011;68944;48.262;14.208;2024-01-16T07:19:56;5.00;;;1.27;;
79480;SDS011;68944;48.262;14.208;2024-01-16T07:22:23;5.90;;;1.77;;
79480;SDS011;68944;48.262;14.208;2024-01-16T07:24:49;4.68;;;1.52;;
79480;SDS011;68944;48.262;14.208;2024-01-16T07:27:14;4.63;;;1.67;;
79480;SDS011;68944;48.262;14.208;2024-01-16T07:29:40;5.35;;;1.55;;
79480;SDS011;68944;48.262;14.208;2024-01-16T07:32:06;5.70;;;1.67;;
79480;SDS011;68944;48.262;14.208;2024-01-16T07:34:32;8.15;;;2.13;;
79480;SDS011;68944;48.262;14.208;2024-01-16T07:36:58;5.97;;;1.67;;
79480;SDS011;68944;48.262;14.208;2024-01-16T07:39:23;3.88;;;1.00;;
79480;SDS011;68944;48.262;14.208;2024-01-16T07:41:49;5.50;;;1.67;;
79480;SDS011;68944;48.262;14.208;2024-01-16T07:44:14;6.30;;;1.80;;
79480;SDS011;68944;48.262;14.208;2024-01-16T07:46:40;4.35;;;1.30;;
79480;SDS011;68944;48.262;14.208;2024-01-16T07:49:05;7.03;;;1.70;;
79480;SDS011;68944;48.262;14.208;2024-01-16T07:51:32;5.65;;;1.73;;
79480;SDS011;68944;48.262;14.208;2024-01-16T07:54:07;6.95;;;2.13;;
79480;SDS011;68944;48.262;14.208;2024-01-16T07:56:34;9.50;;;2.05;;
79480;SDS011;68944;48.262;14.208;2024-01-16T07:59:00;5.38;;;1.85;;
79480;SDS011;68944;48.262;14.208;2024-01-16T08:01:27;5.85;;;1.95;;
79480;SDS011;68944;48.262;14.208;2024-01-16T08:03:54;7.90;;;2.25;;
79480;SDS011;68944;48.262;14.208;2024-01-16T08:06:20;6.35;;;1.98;;
79480;SDS011;68944;48.262;14.208;2024-01-16T08:08:46;5.47;;;1.67;;
79480;SDS011;68944;48.262;14.208;2024-01-16T08:11:11;4.70;;;1.70;;
79480;SDS011;68944;48.262;14.208;2024-01-16T08:13:37;5.68;;;2.15;;
79480;SDS011;68944;48.262;14.208;2024-01-16T08:16:03;6.70;;;1.95;;
79480;SDS011;68944;48.262;14.208;2024-01-16T08:18:29;4.53;;;1.40;;
79480;SDS011;68944;48.262;14.208;2024-01-16T08:20:56;4.32;;;1.48;;
79480;SDS011;68944;48.262;14.208;2024-01-16T08:23:22;3.75;;;1.30;;
79480;SDS011;68944;48.262;14.208;2024-01-16T08:25:49;5.88;;;1.25;;
79480;SDS011;68944;48.262;14.208;2024-01-16T08:28:16;3.83;;;1.20;;
79480;SDS011;68944;48.262;14.208;2024-01-16T08:30:42;4.82;;;1.50;;
79480;SDS011;68944;48.262;14.208;2024-01-16T08:33:08;4.88;;;1.38;;
79480;SDS011;68944;48.262;14.208;2024-01-16T08:35:33;7.63;;;1.80;;
79480;SDS011;68944;48.262;14.208;2024-01-16T08:37:59;5.55;;;1.45;;
79480;SDS011;68944;48.262;14.208;2024-01-16T08:40:24;4.32;;;1.40;;
79480;SDS011;68944;48.262;14.208;2024-01-16T08:42:50;7.25;;;1.98;;
79480;SDS011;68944;48.262;14.208;2024-01-16T08:45:20;6.75;;;1.55;;
79480;SDS011;68944;48.262;14.208;2024-01-16T08:47:46;6.70;;;1.75;;
79480;SDS011;68944;48.262;14.208;2024-01-16T08:50:12;5.32;;;1.48;;
79480;SDS011;68944;48.262;14.208;2024-01-16T08:52:37;9.05;;;1.75;;
79480;SDS011;68944;48.262;14.208;2024-01-16T08:55:03;6.35;;;1.58;;
79480;SDS011;68944;48.262;14.208;2024-01-16T08:57:29;5.45;;;1.85;;
79480;SDS011;68944;48.262;14.208;2024-01-16T08:59:55;4.35;;;1.42;;
79480;SDS011;68944;48.262;14.208;2024-01-16T09:02:20;3.63;;;1.30;;
79480;SDS011;68944;48.262;14.208;2024-01-16T09:04:47;5.60;;;1.67;;
79480;SDS011;68944;48.262;14.208;2024-01-16T09:07:15;6.05;;;1.60;;
79480;SDS011;68944;48.262;14.208;2024-01-16T09:09:43;5.15;;;1.80;;
79480;SDS011;68944;48.262;14.208;2024-01-16T09:12:09;5.20;;;1.70;;
79480;SDS011;68944;48.262;14.208;2024-01-16T09:14:35;6.53;;;1.40;;
79480;SDS011;68944;48.262;14.208;2024-01-16T09:17:00;5.82;;;1.98;;
79480;SDS011;68944;48.262;14.208;2024-01-16T09:19:26;9.15;;;2.00;;
79480;SDS011;68944;48.262;14.208;2024-01-16T09:21:51;4.45;;;1.60;;
79480;SDS011;68944;48.262;14.208;2024-01-16T09:24:17;5.75;;;1.92;;
79480;SDS011;68944;48.262;14.208;2024-01-16T09:26:44;5.75;;;1.67;;
79480;SDS011;68944;48.262;14.208;2024-01-16T09:29:09;4.88;;;1.60;;
79480;SDS011;68944;48.262;14.208;2024-01-16T09:31:35;8.63;;;1.80;;
79480;SDS011;68944;48.262;14.208;2024-01-16T09:34:01;5.43;;;1.50;;
79480;SDS011;68944;48.262;14.208;2024-01-16T09:36:29;7.65;;;2.20;;
79480;SDS011;68944;48.262;14.208;2024-01-16T09:38:54;4.35;;;1.60;;
79480;SDS011;68944;48.262;14.208;2024-01-16T09:41:20;5.40;;;1.88;;
79480;SDS011;68944;48.262;14.208;2024-01-16T09:43:46;6.10;;;1.75;;
79480;SDS011;68944;48.262;14.208;2024-01-16T09:46:12;5.85;;;1.90;;
79480;SDS011;68944;48.262;14.208;2024-01-16T09:48:40;4.72;;;1.52;;
79480;SDS011;68944;48.262;14.208;2024-01-16T09:51:08;5.13;;;1.52;;
79480;SDS011;68944;48.262;14.208;2024-01-16T09:53:34;5.93;;;1.70;;
79480;SDS011;68944;48.262;14.208;2024-01-16T09:56:01;7.28;;;2.10;;
79480;SDS011;68944;48.262;14.208;2024-01-16T09:58:29;8.00;;;1.88;;
79480;SDS011;68944;48.262;14.208;2024-01-16T10:00:59;4.22;;;1.42;;
79480;SDS011;68944;48.262;14.208;2024-01-16T10:03:25;6.22;;;2.03;;
79480;SDS011;68944;48.262;14.208;2024-01-16T10:05:53;6.70;;;1.70;;
79480;SDS011;68944;48.262;14.208;2024-01-16T10:08:19;7.22;;;1.80;;
79480;SDS011;68944;48.262;14.208;2024-01-16T10:10:46;7.70;;;1.67;;
79480;SDS011;68944;48.262;14.208;2024-01-16T10:13:12;7.72;;;1.83;;
79480;SDS011;68944;48.262;14.208;2024-01-16T10:15:40;11.25;;;2.05;;
79480;SDS011;68944;48.262;14.208;2024-01-16T10:18:05;6.25;;;1.88;;
79480;SDS011;68944;48.262;14.208;2024-01-16T10:20:47;9.10;;;2.45;;
79480;SDS011;68944;48.262;14.208;2024-01-16T10:23:15;4.88;;;1.50;;
79480;SDS011;68944;48.262;14.208;2024-01-16T10:25:55;7.57;;;2.03;;
79480;SDS011;68944;48.262;14.208;2024-01-16T10:28:42;5.65;;;1.73;;
79480;SDS011;68944;48.262;14.208;2024-01-16T10:31:09;5.88;;;1.90;;
79480;SDS011;68944;48.262;14.208;2024-01-16T10:33:35;6.07;;;1.88;;
79480;SDS011;68944;48.262;14.208;2024-01-16T10:36:11;6.43;;;2.03;;
79480;SDS011;68944;48.262;14.208;2024-01-16T10:38:44;5.60;;;1.90;;
79480;SDS011;68944;48.262;14.208;2024-01-16T10:41:15;7.05;;;1.85;;
79480;SDS011;68944;48.262;14.208;2024-01-16T10:43:42;18.55;;;1.85;;
79480;SDS011;68944;48.262;14.208;2024-01-16T10:46:12;7.70;;;2.30;;
79480;SDS011;68944;48.262;14.208;2024-01-16T10:48:39;6.55;;;1.95;;
79480;SDS011;68944;48.262;14.208;2024-01-16T10:51:07;8.10;;;1.83;;
79480;SDS011;68944;48.262;14.208;2024-01-16T10:53:34;6.80;;;2.05;;
79480;SDS011;68944;48.262;14.208;2024-01-16T10:56:00;9.60;;;2.03;;
79480;SDS011;68944;48.262;14.208;2024-01-16T10:58:27;11.45;;;3.70;;
79480;SDS011;68944;48.262;14.208;2024-01-16T11:00:57;9.02;;;2.53;;
79480;SDS011;68944;48.262;14.208;2024-01-16T11:03:49;6.60;;;1.95;;
79480;SDS011;68944;48.262;14.208;2024-01-16T11:06:16;6.55;;;2.20;;
79480;SDS011;68944;48.262;14.208;2024-01-16T11:08:45;5.63;;;1.90;;
79480;SDS011;68944;48.262;14.208;2024-01-16T11:11:12;7.05;;;1.98;;
79480;SDS011;68944;48.262;14.208;2024-01-16T11:13:38;7.13;;;2.10;;
79480;SDS011;68944;48.262;14.208;2024-01-16T11:16:06;6.03;;;1.67;;
79480;SDS011;68944;48.262;14.208;2024-01-16T11:18:33;10.13;;;1.95;;
79480;SDS011;68944;48.262;14.208;2024-01-16T11:21:00;9.07;;;2.30;;
79480;SDS011;68944;48.262;14.208;2024-01-16T11:23:28;6.18;;;1.80;;
79480;SDS011;68944;48.262;14.208;2024-01-16T11:25:54;6.15;;;1.80;;
79480;SDS011;68944;48.262;14.208;2024-01-16T11:28:20;10.30;;;3.05;;
79480;SDS011;68944;48.262;14.208;2024-01-16T11:30:45;15.52;;;4.63;;
79480;SDS011;68944;48.262;14.208;2024-01-16T11:38:25;5.53;;;1.60;;
79480;SDS011;68944;48.262;14.208;2024-01-16T11:40:54;7.15;;;1.85;;
79480;SDS011;68944;48.262;14.208;2024-01-16T11:48:24;6.80;;;1.67;;
79480;SDS011;68944;48.262;14.208;2024-01-16T11:50:50;7.50;;;1.70;;
79480;SDS011;68944;48.262;14.208;2024-01-16T12:01:41;8.23;;;2.05;;
79480;SDS011;68944;48.262;14.208;2024-01-16T12:04:10;6.90;;;2.22;;
79480;SDS011;68944;48.262;14.208;2024-01-16T12:06:36;6.95;;;1.80;;
79480;SDS011;68944;48.262;14.208;2024-01-16T12:09:12;6.32;;;2.08;;
79480;SDS011;68944;48.262;14.208;2024-01-16T12:11:41;6.95;;;2.00;;
79480;SDS011;68944;48.262;14.208;2024-01-16T12:14:12;6.65;;;1.70;;
79480;SDS011;68944;48.262;14.208;2024-01-16T12:16:38;5.70;;;1.70;;
79480;SDS011;68944;48.262;14.208;2024-01-16T12:19:07;6.68;;;2.08;;
79480;SDS011;68944;48.262;14.208;2024-01-16T12:21:43;7.95;;;2.17;;
79480;SDS011;68944;48.262;14.208;2024-01-16T12:24:11;6.53;;;2.10;;
79480;SDS011;68944;48.262;14.208;2024-01-16T12:26:40;7.82;;;1.90;;
79480;SDS011;68944;48.262;14.208;2024-01-16T12:29:06;5.63;;;1.83;;
79480;SDS011;68944;48.262;14.208;2024-01-16T12:31:32;7.35;;;2.05;;
79480;SDS011;68944;48.262;14.208;2024-01-16T12:36:35;6.22;;;1.73;;
79480;SDS011;68944;48.262;14.208;2024-01-16T12:39:03;8.57;;;2.22;;
79480;SDS011;68944;48.262;14.208;2024-01-16T12:41:30;7.80;;;2.17;;
79480;SDS011;68944;48.262;14.208;2024-01-16T12:43:59;6.65;;;2.13;;
79480;SDS011;68944;48.262;14.208;2024-01-16T12:46:25;6.90;;;2.08;;
79480;SDS011;68944;48.262;14.208;2024-01-16T12:48:51;8.43;;;2.65;;
79480;SDS011;68944;48.262;14.208;2024-01-16T12:51:20;7.45;;;2.22;;
79480;SDS011;68944;48.262;14.208;2024-01-16T12:53:47;5.53;;;1.60;;
79480;SDS011;68944;48.262;14.208;2024-01-16T12:56:17;6.38;;;1.80;;
79480;SDS011;68944;48.262;14.208;2024-01-16T12:58:44;7.50;;;1.90;;
79480;SDS011;68944;48.262;14.208;2024-01-16T13:01:27;5.95;;;1.80;;
79480;SDS011;68944;48.262;14.208;2024-01-16T13:03:54;6.18;;;1.92;;
79480;SDS011;68944;48.262;14.208;2024-01-16T13:06:20;8.75;;;2.30;;
79480;SDS011;68944;48.262;14.208;2024-01-16T13:08:47;9.75;;;2.60;;
79480;SDS011;68944;48.262;14.208;2024-01-16T13:11:13;9.45;;;2.10;;
79480;SDS011;68944;48.262;14.208;2024-01-16T13:13:48;6.93;;;1.52;;
79480;SDS011;68944;48.262;14.208;2024-01-16T13:16:17;5.82;;;1.90;;
79480;SDS011;68944;48.262;14.208;2024-01-16T13:18:42;4.93;;;1.80;;
79480;SDS011;68944;48.262;14.208;2024-01-16T13:21:08;6.28;;;1.70;;
79480;SDS011;68944;48.262;14.208;2024-01-16T13:23:34;6.60;;;2.17;;
79480;SDS011;68944;48.262;14.208;2024-01-16T13:26:00;5.65;;;1.77;;
79480;SDS011;68944;48.262;14.208;2024-01-16T13:28:28;6.93;;;2.05;;
79480;SDS011;68944;48.262;14.208;2024-01-16T13:30:54;6.53;;;2.10;;
79480;SDS011;68944;48.262;14.208;2024-01-16T13:33:22;5.43;;;1.80;;
79480;SDS011;68944;48.262;14.208;2024-01-16T13:35:52;5.75;;;1.73;;
79480;SDS011;68944;48.262;14.208;2024-01-16T13:38:19;7.53;;;2.13;;
79480;SDS011;68944;48.262;14.208;2024-01-16T13:40:47;9.75;;;2.58;;
79480;SDS011;68944;48.262;14.208;2024-01-16T13:43:15;10.15;;;3.50;;
79480;SDS011;68944;48.262;14.208;2024-01-16T13:45:40;6.53;;;2.30;;
79480;SDS011;68944;48.262;14.208;2024-01-16T13:48:06;7.60;;;2.28;;
79480;SDS011;68944;48.262;14.208;2024-01-16T13:50:32;9.10;;;2.60;;
79480;SDS011;68944;48.262;14.208;2024-01-16T13:52:58;7.10;;;2.00;;
79480;SDS011;68944;48.262;14.208;2024-01-16T13:55:24;5.43;;;1.88;;
79480;SDS011;68944;48.262;14.208;2024-01-16T13:57:51;5.07;;;1.58;;
79480;SDS011;68944;48.262;14.208;2024-01-16T14:00:16;4.85;;;1.85;;
79480;SDS011;68944;48.262;14.208;2024-01-16T14:02:44;5.45;;;1.63;;
79480;SDS011;68944;48.262;14.208;2024-01-16T14:05:17;6.38;;;2.03;;
79480;SDS011;68944;48.262;14.208;2024-01-16T14:07:47;6.55;;;1.67;;
79480;SDS011;68944;48.262;14.208;2024-01-16T14:10:17;7.78;;;1.50;;
79480;SDS011;68944;48.262;14.208;2024-01-16T14:12:44;4.82;;;1.40;;
79480;SDS011;68944;48.262;14.208;2024-01-16T14:15:11;7.57;;;1.90;;
79480;SDS011;68944;48.262;14.208;2024-01-16T14:17:48;8.80;;;2.00;;
79480;SDS011;68944;48.262;14.208;2024-01-16T14:20:18;7.07;;;1.90;;
79480;SDS011;68944;48.262;14.208;2024-01-16T14:22:48;7.05;;;2.05;;
79480;SDS011;68944;48.262;14.208;2024-01-16T14:25:14;7.13;;;1.50;;
79480;SDS011;68944;48.262;14.208;2024-01-16T14:27:44;5.85;;;1.73;;
79480;SDS011;68944;48.262;14.208;2024-01-16T14:30:11;7.18;;;1.90;;
79480;SDS011;68944;48.262;14.208;2024-01-16T14:32:42;5.40;;;1.80;;
79480;SDS011;68944;48.262;14.208;2024-01-16T14:35:12;5.90;;;2.30;;
79480;SDS011;68944;48.262;14.208;2024-01-16T14:37:39;7.65;;;1.77;;
79480;SDS011;68944;48.262;14.208;2024-01-16T14:40:06;8.07;;;2.17;;
79480;SDS011;68944;48.262;14.208;2024-01-16T14:42:40;7.10;;;1.90;;
79480;SDS011;68944;48.262;14.208;2024-01-16T14:45:06;5.57;;;1.58;;
79480;SDS011;68944;48.262;14.208;2024-01-16T14:47:33;10.98;;;3.60;;
79480;SDS011;68944;48.262;14.208;2024-01-16T14:49:59;5.07;;;1.75;;
79480;SDS011;68944;48.262;14.208;2024-01-16T14:52:24;5.30;;;1.80;;
79480;SDS011;68944;48.262;14.208;2024-01-16T14:54:50;5.70;;;1.73;;
79480;SDS011;68944;48.262;14.208;2024-01-16T14:57:15;7.75;;;2.20;;